createdAt,value
2018-09-23T00:00:14.997Z,0.00
2018-09-23T00:03:14.945Z,0.00
2018-09-23T00:06:14.930Z,0.00
2018-09-23T00:09:14.881Z,0.00
2018-09-23T00:12:15.890Z,0.00
2018-09-23T00:15:14.827Z,0.00
2018-09-23T00:18:14.791Z,0.00
2018-09-23T00:21:14.758Z,0.00
2018-09-23T00:24:14.732Z,0.00
2018-09-23T00:27:14.682Z,0.00
2018-09-23T00:30:14.672Z,0.00
2018-09-23T00:33:14.599Z,0.00
2018-09-23T00:36:14.795Z,0.00
2018-09-23T00:39:14.555Z,0.00
2018-09-23T00:42:14.495Z,0.00
2018-09-23T00:45:14.491Z,0.00
2018-09-23T00:48:14.459Z,0.00
2018-09-23T00:51:14.394Z,0.00
2018-09-23T00:54:14.384Z,0.00
2018-09-23T00:57:14.332Z,0.00
2018-09-23T01:00:14.318Z,0.00
2018-09-23T01:03:14.250Z,0.00
2018-09-23T01:06:14.250Z,0.00
2018-09-23T01:09:14.236Z,0.00
2018-09-23T01:12:14.187Z,0.00
2018-09-23T01:15:14.116Z,0.00
2018-09-23T01:18:14.109Z,0.00
2018-09-23T01:21:14.059Z,0.00
2018-09-23T01:24:14.162Z,0.00
2018-09-23T01:27:13.993Z,0.00
2018-09-23T01:30:14.636Z,0.00
2018-09-23T01:33:13.901Z,0.00
2018-09-23T01:36:13.892Z,0.00
2018-09-23T01:39:13.856Z,0.00
2018-09-23T01:42:13.892Z,0.00
2018-09-23T01:45:13.768Z,0.00
2018-09-23T01:48:13.737Z,0.00
2018-09-23T01:51:13.750Z,0.00
2018-09-23T01:54:13.670Z,0.00
2018-09-23T01:57:13.669Z,0.00
2018-09-23T02:00:13.633Z,0.00
2018-09-23T02:03:13.573Z,0.00
2018-09-23T02:06:13.574Z,0.00
2018-09-23T02:09:13.501Z,0.00
2018-09-23T02:12:13.492Z,0.00
2018-09-23T02:15:13.424Z,0.00
2018-09-23T02:18:13.422Z,0.00
2018-09-23T02:21:13.436Z,0.00
2018-09-23T02:24:13.360Z,0.00
2018-09-23T02:27:13.288Z,0.00
2018-09-23T02:30:13.268Z,0.00
2018-09-23T02:33:13.227Z,0.00
2018-09-23T02:36:13.211Z,0.00
2018-09-23T02:39:13.156Z,0.00
2018-09-23T02:42:13.159Z,0.00
2018-09-23T02:45:13.078Z,0.00
2018-09-23T02:48:13.090Z,0.00
2018-09-23T02:51:13.043Z,0.00
2018-09-23T02:54:13.025Z,0.00
2018-09-23T02:57:12.991Z,0.00
2018-09-23T03:00:12.984Z,0.00
2018-09-23T03:03:12.882Z,0.00
2018-09-23T03:06:12.902Z,0.00
2018-09-23T03:09:12.821Z,0.00
2018-09-23T03:12:12.831Z,0.00
2018-09-23T03:15:12.743Z,0.00
2018-09-23T03:18:12.749Z,0.00
2018-09-23T03:21:13.632Z,0.00
2018-09-23T03:24:12.697Z,0.00
2018-09-23T03:27:12.596Z,0.00
2018-09-23T03:30:12.587Z,0.00
2018-09-23T03:33:12.556Z,0.00
2018-09-23T03:36:12.959Z,0.00
2018-09-23T03:39:12.478Z,0.00
2018-09-23T03:42:12.436Z,0.00
2018-09-23T03:45:12.688Z,0.00
2018-09-23T03:48:12.392Z,0.00
2018-09-23T03:51:12.329Z,0.00
2018-09-23T03:54:12.638Z,0.00
2018-09-23T03:57:12.287Z,0.00
2018-09-23T04:00:12.259Z,0.00
2018-09-23T04:03:12.193Z,0.00
2018-09-23T04:06:12.557Z,0.00
2018-09-23T04:09:12.163Z,0.00
2018-09-23T04:12:12.200Z,0.00
2018-09-23T04:15:12.048Z,0.00
2018-09-23T04:18:12.053Z,0.00
2018-09-23T04:21:12.987Z,0.00
2018-09-23T04:24:11.965Z,0.00
2018-09-23T04:27:11.912Z,0.00
2018-09-23T04:30:11.904Z,0.00
2018-09-23T04:33:11.851Z,0.00
2018-09-23T04:36:12.119Z,0.00
2018-09-23T04:39:11.774Z,0.00
2018-09-23T04:42:11.758Z,0.00
2018-09-23T04:45:11.721Z,0.00
2018-09-23T04:48:11.683Z,0.00
2018-09-23T04:51:11.655Z,0.00
2018-09-23T04:54:11.660Z,0.00
2018-09-23T04:57:11.590Z,0.00
2018-09-23T05:00:11.560Z,0.00
2018-09-23T05:03:11.540Z,0.00
2018-09-23T05:06:11.512Z,0.00
2018-09-23T05:09:11.450Z,0.00
2018-09-23T05:12:11.425Z,0.00
2018-09-23T05:15:11.462Z,0.00
2018-09-23T05:18:11.372Z,0.00
2018-09-23T05:21:11.311Z,0.00
2018-09-23T05:24:11.310Z,5.62
2018-09-23T05:27:11.231Z,5.62
2018-09-23T05:30:11.262Z,11.25
2018-09-23T05:33:11.174Z,16.88
2018-09-23T05:36:11.194Z,16.88
2018-09-23T05:39:11.150Z,22.50
2018-09-23T05:42:11.183Z,22.50
2018-09-23T05:45:11.116Z,22.50
2018-09-23T05:48:11.012Z,22.50
2018-09-23T05:51:10.972Z,22.50
2018-09-23T05:54:12.642Z,22.50
2018-09-23T05:57:10.937Z,33.75
2018-09-23T06:00:19.772Z,45.00
2018-09-23T06:03:10.868Z,56.25
2018-09-23T06:06:10.821Z,45.00
2018-09-23T06:09:10.754Z,45.00
2018-09-23T06:12:10.719Z,50.62
2018-09-23T06:15:10.683Z,56.25
2018-09-23T06:18:10.705Z,61.88
2018-09-23T06:21:10.631Z,84.38
2018-09-23T06:24:10.618Z,112.50
2018-09-23T06:27:10.551Z,95.62
2018-09-23T06:30:10.530Z,84.38
2018-09-23T06:33:10.470Z,106.88
2018-09-23T06:36:10.459Z,123.75
2018-09-23T06:39:10.432Z,118.12
2018-09-23T06:42:10.388Z,140.62
2018-09-23T06:45:10.535Z,151.88
2018-09-23T06:48:10.312Z,174.38
2018-09-23T06:51:10.353Z,168.75
2018-09-23T06:54:10.271Z,191.25
2018-09-23T06:57:10.211Z,185.62
2018-09-23T07:00:10.199Z,180.00
2018-09-23T07:03:10.142Z,202.50
2018-09-23T07:06:10.128Z,185.62
2018-09-23T07:09:10.068Z,180.00
2018-09-23T07:12:10.043Z,191.25
2018-09-23T07:15:09.989Z,185.62
2018-09-23T07:18:10.037Z,163.12
2018-09-23T07:21:09.977Z,157.50
2018-09-23T07:24:09.933Z,146.25
2018-09-23T07:27:09.959Z,146.25
2018-09-23T07:30:09.850Z,208.12
2018-09-23T07:33:09.791Z,253.12
2018-09-23T07:36:09.771Z,247.50
2018-09-23T07:39:09.722Z,208.12
2018-09-23T07:42:09.702Z,202.50
2018-09-23T07:45:09.747Z,196.88
2018-09-23T07:48:09.802Z,213.75
2018-09-23T07:51:09.642Z,241.88
2018-09-23T07:54:09.675Z,303.75
2018-09-23T07:57:09.550Z,388.12
2018-09-23T08:00:09.583Z,354.38
2018-09-23T08:03:09.533Z,303.75
2018-09-23T08:06:09.461Z,343.12
2018-09-23T08:09:09.404Z,427.50
2018-09-23T08:12:09.361Z,630.00
2018-09-23T08:15:09.313Z,455.62
2018-09-23T08:18:09.322Z,292.50
2018-09-23T08:21:09.297Z,264.38
2018-09-23T08:24:09.225Z,253.12
2018-09-23T08:27:09.168Z,202.50
2018-09-23T08:30:09.185Z,185.62
2018-09-23T08:33:09.144Z,180.00
2018-09-23T08:36:09.106Z,174.38
2018-09-23T08:39:09.064Z,208.12
2018-09-23T08:42:09.022Z,236.25
2018-09-23T08:45:09.249Z,225.00
2018-09-23T08:48:08.989Z,247.50
2018-09-23T08:51:08.924Z,382.50
2018-09-23T08:54:08.878Z,399.38
2018-09-23T08:57:08.827Z,466.88
2018-09-23T09:00:08.839Z,540.00
2018-09-23T09:03:08.759Z,489.38
2018-09-23T09:06:08.758Z,376.88
2018-09-23T09:09:08.722Z,371.25
2018-09-23T09:12:08.745Z,410.62
2018-09-23T09:15:08.647Z,376.88
2018-09-23T09:18:08.607Z,331.88
2018-09-23T09:21:08.560Z,298.12
2018-09-23T09:24:08.584Z,315.00
2018-09-23T09:27:08.563Z,376.88
2018-09-23T09:30:08.484Z,354.38
2018-09-23T09:33:08.475Z,371.25
2018-09-23T09:36:12.101Z,376.88
2018-09-23T09:39:08.358Z,264.38
2018-09-23T09:42:08.389Z,258.75
2018-09-23T09:45:08.298Z,348.75
2018-09-23T09:48:08.260Z,348.75
2018-09-23T09:51:08.231Z,523.12
2018-09-23T09:54:08.212Z,461.25
2018-09-23T09:57:08.150Z,360.00
2018-09-23T10:00:08.208Z,275.62
2018-09-23T10:03:08.117Z,225.00
2018-09-23T10:06:08.062Z,253.12
2018-09-23T10:09:08.052Z,382.50
2018-09-23T10:12:08.048Z,315.00
2018-09-23T10:15:07.995Z,298.12
2018-09-23T10:18:07.937Z,270.00
2018-09-23T10:21:07.878Z,326.25
2018-09-23T10:24:07.870Z,303.75
2018-09-23T10:27:07.835Z,230.62
2018-09-23T10:30:08.835Z,146.25
2018-09-23T10:33:07.757Z,123.75
2018-09-23T10:36:07.793Z,151.88
2018-09-23T10:39:07.686Z,196.88
2018-09-23T10:42:07.670Z,275.62
2018-09-23T10:45:07.604Z,196.88
2018-09-23T10:48:07.605Z,225.00
2018-09-23T10:51:07.558Z,208.12
2018-09-23T10:54:07.538Z,264.38
2018-09-23T10:57:07.473Z,365.62
2018-09-23T11:00:07.466Z,343.12
2018-09-23T11:03:07.412Z,219.38
2018-09-23T11:06:07.443Z,331.88
2018-09-23T11:09:07.343Z,315.00
2018-09-23T11:12:07.307Z,348.75
2018-09-23T11:15:07.321Z,337.50
2018-09-23T11:18:07.237Z,438.75
2018-09-23T11:21:07.196Z,320.62
2018-09-23T11:24:07.176Z,286.88
2018-09-23T11:27:07.124Z,326.25
2018-09-23T11:30:07.876Z,230.62
2018-09-23T11:33:07.071Z,135.00
2018-09-23T11:36:07.045Z,56.25
2018-09-23T11:39:07.002Z,33.75
2018-09-23T11:42:07.155Z,45.00
2018-09-23T11:45:06.932Z,56.25
2018-09-23T11:48:06.915Z,67.50
2018-09-23T11:51:06.852Z,61.88
2018-09-23T11:54:08.576Z,78.75
2018-09-23T11:57:06.784Z,151.88
2018-09-23T12:00:06.771Z,247.50
2018-09-23T12:03:06.738Z,241.88
2018-09-23T12:06:06.718Z,343.12
2018-09-23T12:09:06.683Z,264.38
2018-09-23T12:12:06.668Z,180.00
2018-09-23T12:15:06.590Z,225.00
2018-09-23T12:18:06.584Z,185.62
2018-09-23T12:21:06.518Z,106.88
2018-09-23T12:24:06.552Z,196.88
2018-09-23T12:27:06.459Z,225.00
2018-09-23T12:30:06.435Z,258.75
2018-09-23T12:33:06.432Z,230.62
2018-09-23T12:36:06.358Z,151.88
2018-09-23T12:39:06.303Z,73.12
2018-09-23T12:42:06.339Z,84.38
2018-09-23T12:45:06.246Z,236.25
2018-09-23T12:48:06.253Z,168.75
2018-09-23T12:51:06.175Z,135.00
2018-09-23T12:54:06.156Z,168.75
2018-09-23T12:57:06.107Z,225.00
2018-09-23T13:00:06.115Z,298.12
2018-09-23T13:03:06.049Z,275.62
2018-09-23T13:06:06.014Z,241.88
2018-09-23T13:09:06.049Z,196.88
2018-09-23T13:12:05.950Z,331.88
2018-09-23T13:15:05.897Z,281.25
2018-09-23T13:18:05.903Z,258.75
2018-09-23T13:21:05.826Z,270.00
2018-09-23T13:24:06.075Z,309.38
2018-09-23T13:27:05.789Z,258.75
2018-09-23T13:30:05.750Z,421.88
2018-09-23T13:33:05.719Z,371.25
2018-09-23T13:36:05.678Z,326.25
2018-09-23T13:39:05.628Z,219.38
2018-09-23T13:42:05.606Z,225.00
2018-09-23T13:45:05.565Z,157.50
2018-09-23T13:48:05.590Z,241.88
2018-09-23T13:51:05.511Z,208.12
2018-09-23T13:54:05.471Z,84.38
2018-09-23T13:57:05.467Z,112.50
2018-09-23T14:00:05.399Z,208.12
2018-09-23T14:03:05.388Z,337.50
2018-09-23T14:06:05.352Z,140.62
2018-09-23T14:09:05.279Z,208.12
2018-09-23T14:12:05.328Z,247.50
2018-09-23T14:15:05.230Z,315.00
2018-09-23T14:18:05.191Z,208.12
2018-09-23T14:21:05.166Z,230.62
2018-09-23T14:24:05.120Z,264.38
2018-09-23T14:27:05.084Z,185.62
2018-09-23T14:30:05.058Z,101.25
2018-09-23T14:33:05.016Z,84.38
2018-09-23T14:36:05.010Z,157.50
2018-09-23T14:39:04.946Z,101.25
2018-09-23T14:42:05.028Z,61.88
2018-09-23T14:45:04.886Z,95.62
2018-09-23T14:48:04.879Z,185.62
2018-09-23T14:51:04.819Z,219.38
2018-09-23T14:54:04.816Z,219.38
2018-09-23T14:57:04.760Z,191.25
2018-09-23T15:00:04.743Z,146.25
2018-09-23T15:03:06.505Z,185.62
2018-09-23T15:06:05.637Z,258.75
2018-09-23T15:09:04.628Z,236.25
2018-09-23T15:12:04.587Z,258.75
2018-09-23T15:15:05.541Z,275.62
2018-09-23T15:18:04.539Z,270.00
2018-09-23T15:21:04.476Z,225.00
2018-09-23T15:24:04.448Z,146.25
2018-09-23T15:27:04.428Z,95.62
2018-09-23T15:30:04.380Z,163.12
2018-09-23T15:33:04.363Z,180.00
2018-09-23T15:36:04.342Z,140.62
2018-09-23T15:39:04.296Z,129.38
2018-09-23T15:42:04.245Z,112.50
2018-09-23T15:45:04.198Z,118.12
2018-09-23T15:48:04.179Z,101.25
2018-09-23T15:51:04.137Z,90.00
2018-09-23T15:54:04.113Z,101.25
2018-09-23T15:57:04.067Z,106.88
2018-09-23T16:00:04.051Z,73.12
2018-09-23T16:03:04.015Z,39.38
2018-09-23T16:06:04.006Z,28.12
2018-09-23T16:09:03.910Z,33.75
2018-09-23T16:12:03.918Z,16.88
2018-09-23T16:15:03.873Z,33.75
2018-09-23T16:18:03.865Z,28.12
2018-09-23T16:21:03.825Z,22.50
2018-09-23T16:24:03.815Z,16.88
2018-09-23T16:27:03.722Z,22.50
2018-09-23T16:30:03.703Z,28.12
2018-09-23T16:33:04.678Z,16.88
2018-09-23T16:36:03.615Z,28.12
2018-09-23T16:39:03.571Z,33.75
2018-09-23T16:42:03.546Z,33.75
2018-09-23T16:45:03.545Z,39.38
2018-09-23T16:48:03.477Z,45.00
2018-09-23T16:51:03.456Z,45.00
2018-09-23T16:54:03.442Z,28.12
2018-09-23T16:57:04.405Z,33.75
2018-09-23T17:00:03.346Z,45.00
2018-09-23T17:03:03.319Z,39.38
2018-09-23T17:06:03.320Z,45.00
2018-09-23T17:09:03.244Z,45.00
2018-09-23T17:12:03.234Z,28.12
2018-09-23T17:15:03.163Z,22.50
2018-09-23T17:18:03.213Z,22.50
2018-09-23T17:21:03.108Z,16.88
2018-09-23T17:24:03.093Z,11.25
2018-09-23T17:27:03.351Z,5.62
2018-09-23T17:30:03.033Z,5.62
2018-09-23T17:33:02.950Z,0.00
2018-09-23T17:36:02.935Z,0.00
2018-09-23T17:39:02.890Z,0.00
2018-09-23T17:42:02.867Z,0.00
2018-09-23T17:45:02.840Z,0.00
2018-09-23T17:48:02.823Z,0.00
2018-09-23T17:51:02.756Z,0.00
2018-09-23T17:54:02.752Z,0.00
2018-09-23T17:57:02.689Z,0.00
2018-09-23T18:00:02.692Z,0.00
2018-09-23T18:03:02.623Z,0.00
2018-09-23T18:06:02.591Z,0.00
2018-09-23T18:09:02.571Z,0.00
2018-09-23T18:12:02.539Z,0.00
2018-09-23T18:15:04.041Z,0.00
2018-09-23T18:18:02.467Z,0.00
2018-09-23T18:21:03.430Z,0.00
2018-09-23T18:24:02.392Z,0.00
2018-09-23T18:27:02.548Z,0.00
2018-09-23T18:30:02.443Z,0.00
2018-09-23T18:33:02.276Z,0.00
2018-09-23T18:36:02.990Z,0.00
2018-09-23T18:39:02.197Z,0.00
2018-09-23T18:42:02.176Z,0.00
2018-09-23T18:45:02.133Z,0.00
2018-09-23T18:48:02.135Z,0.00
2018-09-23T18:51:02.065Z,0.00
2018-09-23T18:54:02.040Z,0.00
2018-09-23T18:57:02.411Z,0.00
2018-09-23T19:00:01.974Z,0.00
2018-09-23T19:03:01.929Z,0.00
2018-09-23T19:06:02.172Z,0.00
2018-09-23T19:09:01.858Z,0.00
2018-09-23T19:12:01.849Z,0.00
2018-09-23T19:15:01.806Z,0.00
2018-09-23T19:18:01.764Z,0.00
2018-09-23T19:21:01.832Z,0.00
2018-09-23T19:24:01.699Z,0.00
2018-09-23T19:27:01.716Z,0.00
2018-09-23T19:30:01.645Z,0.00
2018-09-23T19:33:01.583Z,0.00
2018-09-23T19:36:01.597Z,0.00
2018-09-23T19:39:01.513Z,0.00
2018-09-23T19:42:01.533Z,0.00
2018-09-23T19:45:01.452Z,0.00
2018-09-23T19:48:01.445Z,0.00
2018-09-23T19:51:01.379Z,0.00
2018-09-23T20:30:04.293Z,0.00
2018-09-23T21:11:08.206Z,0.00
2018-09-23T21:13:56.971Z,0.00
2018-09-23T21:40:00.624Z,0.00
2018-09-23T21:42:59.613Z,0.00
2018-09-23T21:47:04.896Z,0.00
2018-09-23T21:50:04.814Z,0.00
2018-09-23T21:53:04.793Z,0.00
2018-09-23T21:56:04.984Z,0.00
2018-09-23T21:59:04.734Z,0.00
2018-09-23T22:02:04.694Z,0.00
2018-09-23T22:05:04.661Z,0.00
2018-09-23T22:08:04.629Z,0.00
2018-09-23T22:11:04.597Z,0.00
2018-09-23T22:14:04.550Z,0.00
2018-09-23T22:17:04.539Z,0.00
2018-09-23T22:20:04.491Z,0.00
2018-09-23T22:23:06.034Z,0.00
2018-09-23T22:26:04.561Z,0.00
2018-09-23T22:29:04.395Z,0.00
2018-09-23T22:32:04.345Z,0.00
2018-09-23T22:35:04.339Z,0.00
2018-09-23T22:38:04.275Z,0.00
2018-09-23T22:41:04.255Z,0.00
2018-09-23T22:44:04.227Z,0.00
2018-09-23T22:47:04.182Z,0.00
2018-09-23T22:50:04.138Z,0.00
2018-09-23T22:53:05.542Z,0.00
2018-09-23T22:56:04.066Z,0.00
2018-09-23T22:59:04.083Z,0.00
2018-09-23T23:02:04.024Z,0.00
2018-09-23T23:05:03.979Z,0.00
2018-09-23T23:08:03.938Z,0.00
2018-09-23T23:11:03.905Z,0.00
2018-09-23T23:14:03.861Z,0.00
2018-09-23T23:17:05.540Z,0.00
2018-09-23T23:20:03.811Z,0.00
2018-09-23T23:23:03.777Z,0.00
2018-09-23T23:26:03.779Z,0.00
2018-09-23T23:29:03.725Z,0.00
2018-09-23T23:32:03.682Z,0.00
2018-09-23T23:35:03.659Z,0.00
2018-09-23T23:38:04.644Z,0.00
2018-09-23T23:41:03.615Z,0.00
2018-09-23T23:44:03.534Z,0.00
2018-09-23T23:47:03.975Z,0.00
2018-09-23T23:50:03.438Z,0.00
2018-09-23T23:53:03.427Z,0.00
2018-09-23T23:56:03.385Z,0.00
2018-09-23T23:59:03.363Z,0.00
